Time;durP1;ratioP1;P1;durP2;ratioP2;P2;SDS_P1;SDS_P2;PMS_P1;PMS_P2;Temp;Humidity;BMP_temperature;BMP_pressure;BME280_temperature;BME280_humidity;BME280_pressure;Samples;Min_cycle;Max_cycle;Signal;HPM_P1;HPM_P2
2022/07/15 00:01:36;;;;;;;;;;;;;;;30.60;26.16;101626.50;4416240;32;20263;-69
2022/07/15 00:04:02;;;;;;;;;;;;;;;30.61;26.33;101633.87;4415882;32;20028;-69
2022/07/15 00:06:27;;;;;;;;;;;;;;;30.72;26.16;101630.75;4412523;32;19949;-69
2022/07/15 00:08:53;;;;;;;;;;;;;;;30.75;26.20;101628.88;4413173;32;19998;-69
2022/07/15 00:11:19;;;;;;;;;;;;;;;30.75;26.20;101625.97;4414341;32;19968;-69
2022/07/15 00:13:45;;;;;;;;;;;;;;;30.52;26.55;101622.69;4414721;32;19958;-69
2022/07/15 00:16:10;;;;;;;;;;;;;;;30.75;26.30;101628.88;4415300;32;19972;-69
2022/07/15 00:18:36;;;;;;;;;;;;;;;30.70;26.32;101624.72;4412972;32;20055;-69
2022/07/15 00:21:01;;;;;;;;;;;;;;;30.61;26.53;101619.34;4418363;32;21502;-69
2022/07/15 00:23:26;;;;;;;;;;;;;;;30.26;26.87;101624.78;4414497;32;19968;-69
2022/07/15 00:25:52;;;;;;;;;;;;;;;30.24;27.03;101621.66;4411205;32;19969;-69
2022/07/15 00:28:17;;;;;;;;;;;;;;;30.43;26.72;101619.47;4413783;32;19989;-69
2022/07/15 00:30:43;;;;;;;;;;;;;;;30.14;27.35;101615.47;4413459;32;20335;-69
2022/07/15 00:33:09;;;;;;;;;;;;;;;30.01;27.68;101611.75;4417517;32;19984;-69
2022/07/15 00:35:36;;;;;;;;;;;;;;;30.01;27.80;101606.75;4415211;32;21384;-69
2022/07/15 00:38:03;;;;;;;;;;;;;;;30.21;27.54;101605.34;4413666;32;20030;-70
2022/07/15 00:40:28;;;;;;;;;;;;;;;30.25;27.59;101606.56;4400040;32;20012;-69
2022/07/15 00:42:55;;;;;;;;;;;;;;;29.45;28.59;101605.25;4417935;32;20299;-69
2022/07/15 00:45:22;;;;;;;;;;;;;;;30.23;27.64;101599.75;4415441;32;19968;-69
2022/07/15 00:47:49;;;;;;;;;;;;;;;30.23;27.61;101600.56;4416363;32;19990;-69
2022/07/15 00:50:15;;;;;;;;;;;;;;;30.08;27.92;101605.28;4413724;32;20047;-69
2022/07/15 00:52:43;;;;;;;;;;;;;;;30.04;28.03;101607.75;4412391;32;19996;-69
2022/07/15 00:55:10;;;;;;;;;;;;;;;29.92;28.06;101600.56;4414553;32;19987;-69
2022/07/15 00:57:37;;;;;;;;;;;;;;;29.75;28.41;101597.13;4413520;32;20020;-69
2022/07/15 01:00:04;;;;;;;;;;;;;;;29.85;28.40;101596.16;4412954;32;19957;-69
2022/07/15 01:02:31;;;;;;;;;;;;;;;29.85;28.18;101592.50;4414936;32;20480;-69
2022/07/15 01:04:58;;;;;;;;;;;;;;;29.74;28.33;101598.47;4414008;32;20008;-69
2022/07/15 01:07:23;;;;;;;;;;;;;;;29.68;28.61;101586.19;4416434;32;20327;-69
2022/07/15 01:09:49;;;;;;;;;;;;;;;29.73;28.65;101582.41;4398331;32;19986;-69
2022/07/15 01:12:14;;;;;;;;;;;;;;;29.86;28.47;101582.44;4413982;32;20421;-69
2022/07/15 01:14:39;;;;;;;;;;;;;;;29.97;28.39;101579.37;4413890;32;20340;-69
2022/07/15 01:17:10;;;;;;;;;;;;;;;30.07;28.21;101580.50;4414370;32;19957;-69
2022/07/15 01:19:35;;;;;;;;;;;;;;;29.79;28.57;101577.31;4414843;32;19998;-69
2022/07/15 01:22:01;;;;;;;;;;;;;;;30.01;28.43;101579.81;4417550;32;19980;-69
2022/07/15 01:24:26;;;;;;;;;;;;;;;29.85;28.77;101575.09;4398904;32;20039;-69
2022/07/15 01:26:52;;;;;;;;;;;;;;;29.95;28.51;101585.72;4414608;32;20429;-69
2022/07/15 01:29:18;;;;;;;;;;;;;;;30.04;28.69;101582.41;4413973;32;20007;-70
2022/07/15 01:31:43;;;;;;;;;;;;;;;30.15;28.41;101582.19;4414458;32;19962;-69
2022/07/15 01:34:09;;;;;;;;;;;;;;;30.13;28.46;101572.47;4415776;32;20009;-69
2022/07/15 01:36:35;;;;;;;;;;;;;;;30.06;28.49;101582.59;4411730;32;20001;-69
2022/07/15 01:39:01;;;;;;;;;;;;;;;29.98;28.51;101580.94;4413817;32;21127;-69
2022/07/15 01:41:26;;;;;;;;;;;;;;;30.06;28.51;101573.91;4413927;32;20009;-69
2022/07/15 01:43:51;;;;;;;;;;;;;;;30.00;28.72;101581.94;4415921;32;19950;-69
2022/07/15 01:46:18;;;;;;;;;;;;;;;29.98;28.70;101578.03;4414497;32;19965;-69
2022/07/15 01:51:29;;;;;;;;;;;;;;;29.75;29.10;101583.41;4414757;32;20015;-69
2022/07/15 01:53:55;;;;;;;;;;;;;;;29.78;28.92;101575.72;4413098;32;20004;-69
2022/07/15 01:56:21;;;;;;;;;;;;;;;29.39;29.58;101579.22;4412203;32;19985;-69
2022/07/15 01:58:47;;;;;;;;;;;;;;;29.92;29.02;101580.25;4412198;32;20421;-69
2022/07/15 02:01:12;;;;;;;;;;;;;;;29.69;29.36;101562.41;4414499;32;20013;-69
2022/07/15 02:03:38;;;;;;;;;;;;;;;29.72;29.29;101566.31;4416136;32;19968;-69
2022/07/15 02:06:03;;;;;;;;;;;;;;;29.62;29.40;101557.28;4414290;32;20437;-69
2022/07/15 02:08:29;;;;;;;;;;;;;;;29.85;29.11;101560.59;4417212;32;20492;-69
2022/07/15 02:10:55;;;;;;;;;;;;;;;29.83;29.00;101561.12;4414206;32;20383;-69
2022/07/15 02:13:21;;;;;;;;;;;;;;;29.75;29.23;101554.41;4414837;32;20023;-69
2022/07/15 02:15:47;;;;;;;;;;;;;;;29.82;29.00;101553.75;4413563;32;19997;-69
2022/07/15 02:18:12;;;;;;;;;;;;;;;29.81;29.10;101548.50;4399762;32;20725;-69
2022/07/15 02:20:38;;;;;;;;;;;;;;;29.81;29.08;101560.91;4417613;32;19961;-69
2022/07/15 02:23:04;;;;;;;;;;;;;;;29.92;28.99;101559.91;4418411;32;20071;-69
2022/07/15 02:25:31;;;;;;;;;;;;;;;29.75;29.17;101553.62;4415538;32;20096;-69
2022/07/15 02:27:59;;;;;;;;;;;;;;;29.62;29.31;101554.38;4416891;32;20009;-69
2022/07/15 02:30:25;;;;;;;;;;;;;;;29.75;29.20;101548.59;4417202;32;20166;-69
2022/07/15 02:32:50;;;;;;;;;;;;;;;29.32;29.76;101544.31;4415483;32;20342;-69
2022/07/15 02:35:16;;;;;;;;;;;;;;;29.56;29.33;101542.03;4416665;32;19995;-69
2022/07/15 02:37:42;;;;;;;;;;;;;;;29.77;29.13;101548.84;4417825;32;21033;-69
2022/07/15 02:40:08;;;;;;;;;;;;;;;29.68;29.21;101542.66;4416630;32;20024;-70
2022/07/15 02:42:34;;;;;;;;;;;;;;;29.81;29.16;101543.47;4416665;32;19965;-70
2022/07/15 02:44:59;;;;;;;;;;;;;;;29.81;29.07;101545.59;4417176;32;19989;-70
2022/07/15 02:47:25;;;;;;;;;;;;;;;29.89;28.97;101546.50;4416635;32;20061;-70
2022/07/15 02:49:51;;;;;;;;;;;;;;;29.63;29.35;101543.56;4415899;32;19954;-70
2022/07/15 02:52:16;;;;;;;;;;;;;;;29.64;29.30;101536.41;4417149;32;20047;-69
2022/07/15 02:54:42;;;;;;;;;;;;;;;29.81;29.06;101539.78;4415319;32;19958;-69
2022/07/15 02:57:07;;;;;;;;;;;;;;;29.80;29.16;101532.44;4414516;32;20387;-69
2022/07/15 02:59:33;;;;;;;;;;;;;;;29.35;29.74;101531.56;4415180;32;19989;-69
2022/07/15 03:01:58;;;;;;;;;;;;;;;29.65;29.15;101538.75;4416502;32;19964;-69
2022/07/15 03:04:24;;;;;;;;;;;;;;;29.90;29.03;101533.56;4417527;32;20329;-69
2022/07/15 03:06:49;;;;;;;;;;;;;;;29.87;28.92;101535.47;4415438;32;19980;-69
2022/07/15 03:09:15;;;;;;;;;;;;;;;30.17;28.66;101535.16;4415850;32;20383;-69
2022/07/15 03:11:41;;;;;;;;;;;;;;;30.23;28.43;101538.78;4414848;32;19985;-69
2022/07/15 03:14:09;;;;;;;;;;;;;;;30.36;28.35;101548.28;4416021;32;19997;-69
2022/07/15 03:16:35;;;;;;;;;;;;;;;30.27;28.41;101545.03;4415170;32;20045;-70
2022/07/15 03:19:00;;;;;;;;;;;;;;;30.13;28.74;101543.44;4413546;32;19984;-70
2022/07/15 03:21:26;;;;;;;;;;;;;;;30.36;28.16;101545.37;4416156;32;20697;-69
2022/07/15 03:23:51;;;;;;;;;;;;;;;30.29;28.36;101546.06;4415355;32;20023;-69
2022/07/15 03:26:17;;;;;;;;;;;;;;;30.18;28.42;101536.72;4413259;32;19962;-69
2022/07/15 03:28:44;;;;;;;;;;;;;;;30.40;28.32;101547.97;4416971;32;19975;-69
2022/07/15 03:31:09;;;;;;;;;;;;;;;30.35;28.27;101540.12;4414890;32;19953;-70
2022/07/15 03:33:35;;;;;;;;;;;;;;;30.55;28.04;101546.03;4417109;32;20003;-70
2022/07/15 03:36:00;;;;;;;;;;;;;;;30.53;27.94;101547.94;4415188;32;20039;-70
2022/07/15 03:38:26;;;;;;;;;;;;;;;30.65;27.61;101552.19;4415329;32;20222;-70
2022/07/15 03:40:51;;;;;;;;;;;;;;;30.70;27.83;101543.34;4415888;32;19953;-70
2022/07/15 03:43:17;;;;;;;;;;;;;;;30.50;28.01;101546.16;4414267;32;20029;-69
2022/07/15 03:45:42;;;;;;;;;;;;;;;30.67;27.79;101538.66;4416769;32;19957;-69
2022/07/15 03:48:08;;;;;;;;;;;;;;;30.72;27.73;101534.84;4415802;32;20007;-69
2022/07/15 03:50:34;;;;;;;;;;;;;;;30.71;27.75;101538.31;4418980;32;19989;-70
2022/07/15 03:53:00;;;;;;;;;;;;;;;30.78;27.61;101534.75;4414202;32;20041;-69
2022/07/15 03:55:26;;;;;;;;;;;;;;;30.88;27.39;101521.31;4416009;32;20016;-70
2022/07/15 03:57:52;;;;;;;;;;;;;;;30.50;27.71;101520.00;4415046;32;19998;-69
2022/07/15 04:00:17;;;;;;;;;;;;;;;30.53;27.59;101518.91;4415755;32;19962;-69
2022/07/15 04:02:43;;;;;;;;;;;;;;;30.67;27.34;101518.31;4417463;32;20123;-69
2022/07/15 04:05:13;;;;;;;;;;;;;;;30.59;27.55;101528.28;4414107;32;19969;-70
2022/07/15 04:07:40;;;;;;;;;;;;;;;30.74;27.34;101528.50;4414914;32;19966;-70
2022/07/15 04:10:06;;;;;;;;;;;;;;;30.76;27.37;101520.00;4416094;32;19963;-70
2022/07/15 04:12:32;;;;;;;;;;;;;;;30.61;27.18;101508.94;4417321;32;19949;-70
2022/07/15 04:14:58;;;;;;;;;;;;;;;30.26;28.04;101512.31;4414154;32;20051;-70
2022/07/15 04:17:23;;;;;;;;;;;;;;;30.45;27.58;101512.97;4414600;32;20331;-70
2022/07/15 04:19:49;;;;;;;;;;;;;;;30.50;27.42;101529.50;4415326;32;19969;-70
2022/07/15 04:22:14;;;;;;;;;;;;;;;30.46;27.62;101529.06;4415017;32;20483;-70
2022/07/15 04:24:40;;;;;;;;;;;;;;;30.55;27.36;101516.19;4413572;32;19953;-70
2022/07/15 04:27:05;;;;;;;;;;;;;;;30.41;27.73;101520.47;4416487;32;20019;-70
2022/07/15 04:29:31;;;;;;;;;;;;;;;30.37;27.37;101517.12;4415510;32;19993;-70
2022/07/15 04:31:57;;;;;;;;;;;;;;;30.47;27.39;101521.91;4415072;32;20004;-70
2022/07/15 04:34:23;;;;;;;;;;;;;;;30.54;27.18;101511.72;4412815;32;20053;-70
2022/07/15 04:36:48;;;;;;;;;;;;;;;30.45;27.10;101515.09;4415876;32;20080;-70
2022/07/15 04:39:14;;;;;;;;;;;;;;;30.73;26.90;101507.38;4413120;32;20001;-70
2022/07/15 04:41:39;;;;;;;;;;;;;;;30.75;27.03;101501.00;4414454;32;20657;-70
2022/07/15 04:44:05;;;;;;;;;;;;;;;30.68;26.50;101499.53;4415185;32;20737;-69
2022/07/15 04:46:31;;;;;;;;;;;;;;;30.83;26.64;101498.94;4417483;32;20365;-70
2022/07/15 04:51:42;;;;;;;;;;;;;;;31.00;26.28;101496.47;4415200;32;20001;-70
2022/07/15 04:54:08;;;;;;;;;;;;;;;31.28;25.72;101505.31;4413649;32;19989;-70
2022/07/15 04:56:34;;;;;;;;;;;;;;;31.24;25.87;101501.19;4414501;32;20712;-69
2022/07/15 04:58:59;;;;;;;;;;;;;;;31.26;26.05;101504.31;4414431;32;19965;-69
2022/07/15 05:01:25;;;;;;;;;;;;;;;31.50;25.87;101507.69;4416201;32;20068;-69
2022/07/15 05:03:50;;;;;;;;;;;;;;;31.38;26.02;101505.63;4412370;32;19988;-69
2022/07/15 05:06:16;;;;;;;;;;;;;;;31.68;25.88;101505.91;4413178;32;20044;-69
2022/07/15 05:08:41;;;;;;;;;;;;;;;31.85;25.50;101506.28;4413807;32;20348;-69
2022/07/15 05:11:07;;;;;;;;;;;;;;;31.92;25.26;101494.69;4397401;32;20005;-69
2022/07/15 05:13:35;;;;;;;;;;;;;;;31.66;25.81;101505.69;4413949;32;20034;-69
2022/07/15 05:16:01;;;;;;;;;;;;;;;31.68;25.33;101502.97;4413106;32;20001;-69
2022/07/15 05:18:28;;;;;;;;;;;;;;;31.86;25.22;101502.00;4413640;32;20001;-69
2022/07/15 05:20:54;;;;;;;;;;;;;;;31.84;25.20;101498.91;4416671;32;20322;-69
2022/07/15 05:23:19;;;;;;;;;;;;;;;31.44;25.44;101504.13;4415143;32;20001;-69
2022/07/15 05:25:45;;;;;;;;;;;;;;;31.55;25.68;101505.97;4412528;32;19954;-69
2022/07/15 05:28:11;;;;;;;;;;;;;;;31.82;25.42;101499.47;4412502;32;20039;-69
2022/07/15 05:30:37;;;;;;;;;;;;;;;32.07;25.11;101496.94;4415739;32;19993;-69
2022/07/15 05:33:03;;;;;;;;;;;;;;;32.17;25.10;101495.03;4414989;32;20314;-69
2022/07/15 05:35:28;;;;;;;;;;;;;;;32.23;24.85;101489.84;4399938;32;19976;-70
2022/07/15 05:37:54;;;;;;;;;;;;;;;32.39;24.76;101495.22;4417414;32;19992;-70
2022/07/15 05:40:19;;;;;;;;;;;;;;;32.47;24.60;101493.12;4416829;32;20421;-69
2022/07/15 05:42:46;;;;;;;;;;;;;;;32.49;24.57;101489.66;4416033;32;20090;-69
2022/07/15 05:45:12;;;;;;;;;;;;;;;32.33;24.83;101494.56;4416301;32;20000;-69
2022/07/15 05:47:37;;;;;;;;;;;;;;;32.16;24.95;101491.37;4418327;32;20411;-69
2022/07/15 05:50:03;;;;;;;;;;;;;;;32.02;25.32;101492.81;4417902;32;20078;-70
2022/07/15 05:52:29;;;;;;;;;;;;;;;32.11;25.28;101497.34;4418666;32;19998;-70
2022/07/15 05:54:54;;;;;;;;;;;;;;;32.10;25.19;101499.50;4417253;32;19954;-70
2022/07/15 05:57:20;;;;;;;;;;;;;;;32.38;24.99;101493.66;4418895;32;19997;-71
2022/07/15 05:59:46;;;;;;;;;;;;;;;32.46;24.98;101497.38;4419084;32;20307;-69
2022/07/15 06:02:13;;;;;;;;;;;;;;;32.73;24.62;101497.91;4401695;32;20720;-69
2022/07/15 06:04:39;;;;;;;;;;;;;;;32.70;24.73;101498.28;4417451;32;19956;-69
2022/07/15 06:07:06;;;;;;;;;;;;;;;32.85;24.56;101489.62;4418400;32;19962;-69
2022/07/15 06:09:32;;;;;;;;;;;;;;;32.95;24.44;101496.47;4414351;32;20256;-69
2022/07/15 06:11:58;;;;;;;;;;;;;;;32.83;24.49;101495.22;4415235;32;20040;-70
2022/07/15 06:14:24;;;;;;;;;;;;;;;32.64;24.91;101499.22;4419809;32;20347;-70
2022/07/15 06:16:49;;;;;;;;;;;;;;;32.80;24.80;101505.13;4416510;32;20008;-70
2022/07/15 06:19:15;;;;;;;;;;;;;;;32.53;24.27;101514.16;4419030;32;19976;-69
2022/07/15 06:21:41;;;;;;;;;;;;;;;32.11;24.77;101506.88;4415843;32;19959;-70
2022/07/15 06:24:06;;;;;;;;;;;;;;;31.95;24.90;101502.28;4420202;32;20008;-70
2022/07/15 06:26:32;;;;;;;;;;;;;;;31.84;25.18;101510.53;4415772;32;19967;-70
2022/07/15 06:29:00;;;;;;;;;;;;;;;31.62;24.58;101517.69;4417007;32;19964;-70
2022/07/15 06:31:26;;;;;;;;;;;;;;;31.90;24.48;101519.91;4417787;32;20027;-70
2022/07/15 06:33:51;;;;;;;;;;;;;;;31.30;25.38;101511.37;4417848;32;19957;-70
2022/07/15 06:36:17;;;;;;;;;;;;;;;32.06;24.50;101509.94;4416475;32;20132;-70
2022/07/15 06:38:43;;;;;;;;;;;;;;;32.38;24.10;101514.06;4415875;32;19977;-70
2022/07/15 06:41:08;;;;;;;;;;;;;;;32.20;24.08;101515.09;4414942;32;20011;-70
2022/07/15 06:43:34;;;;;;;;;;;;;;;31.43;24.82;101527.97;4412378;32;19961;-69
2022/07/15 06:46:00;;;;;;;;;;;;;;;31.46;24.77;101518.09;4411140;32;20238;-69
2022/07/15 06:48:25;;;;;;;;;;;;;;;31.30;24.76;101511.37;4413763;32;20032;-69
2022/07/15 06:50:51;;;;;;;;;;;;;;;31.55;24.35;101506.75;4411173;32;19965;-69
2022/07/15 06:53:16;;;;;;;;;;;;;;;31.54;24.36;101507.34;4409335;32;19994;-69
2022/07/15 06:55:42;;;;;;;;;;;;;;;31.96;23.90;101506.75;4409977;32;20046;-69
2022/07/15 06:58:07;;;;;;;;;;;;;;;32.23;23.57;101510.25;4408863;32;19989;-69
2022/07/15 07:00:33;;;;;;;;;;;;;;;31.79;24.13;101514.34;4408602;32;20005;-69
2022/07/15 07:02:58;;;;;;;;;;;;;;;32.38;23.32;101508.25;4405216;32;20529;-70
2022/07/15 07:05:24;;;;;;;;;;;;;;;32.58;23.03;101497.87;4408539;32;19953;-70
2022/07/15 07:07:49;;;;;;;;;;;;;;;32.96;22.70;101498.81;4409099;32;19953;-70
2022/07/15 07:10:15;;;;;;;;;;;;;;;32.70;23.13;101501.97;4403830;32;21470;-70
2022/07/15 07:12:41;;;;;;;;;;;;;;;33.38;22.37;101493.50;4400909;32;19997;-70
2022/07/15 07:15:07;;;;;;;;;;;;;;;33.53;22.20;101500.12;4411146;32;20339;-70
2022/07/15 07:17:32;;;;;;;;;;;;;;;33.23;22.48;101494.22;4404087;32;20038;-70
2022/07/15 07:19:58;;;;;;;;;;;;;;;33.31;22.49;101503.00;4414755;32;20000;-70
2022/07/15 07:22:23;;;;;;;;;;;;;;;33.46;22.35;101497.19;4411739;32;20054;-71
2022/07/15 07:24:49;;;;;;;;;;;;;;;33.21;22.79;101496.94;4413771;32;21050;-71
2022/07/15 07:27:15;;;;;;;;;;;;;;;32.72;23.14;101499.28;4409775;32;20728;-71
2022/07/15 07:29:40;;;;;;;;;;;;;;;33.12;22.95;101494.56;4406855;32;20678;-71
2022/07/15 07:32:06;;;;;;;;;;;;;;;33.05;22.88;101506.22;4409060;32;20075;-70
2022/07/15 07:34:32;;;;;;;;;;;;;;;33.93;22.11;101514.97;4407876;32;20027;-70
2022/07/15 07:36:57;;;;;;;;;;;;;;;34.18;21.89;101510.06;4411867;32;20019;-70
2022/07/15 07:39:23;;;;;;;;;;;;;;;34.73;21.24;101508.00;4410902;32;20062;-70
2022/07/15 07:41:52;;;;;;;;;;;;;;;34.59;21.35;101508.81;4407312;32;19993;-70
2022/07/15 07:44:19;;;;;;;;;;;;;;;34.58;21.42;101507.25;4407267;32;20010;-71
2022/07/15 07:46:44;;;;;;;;;;;;;;;34.83;21.08;101511.06;4409138;32;20624;-70
2022/07/15 07:49:12;;;;;;;;;;;;;;;34.79;21.18;101505.63;4409108;32;21098;-70
2022/07/15 07:51:40;;;;;;;;;;;;;;;34.87;20.99;101503.47;4407765;32;20328;-71
2022/07/15 07:54:06;;;;;;;;;;;;;;;35.08;20.89;101498.09;4408995;32;20244;-71
2022/07/15 07:56:32;;;;;;;;;;;;;;;34.76;21.06;101498.03;4410795;32;20086;-71
2022/07/15 07:58:57;;;;;;;;;;;;;;;34.64;21.34;101496.12;4405948;32;20097;-70
2022/07/15 08:01:23;;;;;;;;;;;;;;;34.72;21.45;101491.78;4408899;32;20342;-70
2022/07/15 08:03:50;;;;;;;;;;;;;;;34.52;21.77;101486.22;4409285;32;19981;-71
2022/07/15 08:06:16;;;;;;;;;;;;;;;34.97;21.26;101489.00;4409900;32;20019;-70
2022/07/15 08:08:41;;;;;;;;;;;;;;;35.00;21.39;101485.63;4412862;32;20320;-70
2022/07/15 08:11:07;;;;;;;;;;;;;;;35.00;21.58;101488.56;4407377;32;20016;-70
2022/07/15 08:13:32;;;;;;;;;;;;;;;35.19;21.39;101488.88;4410664;32;20004;-70
2022/07/15 08:15:58;;;;;;;;;;;;;;;34.85;21.70;101488.63;4409194;32;19971;-70
2022/07/15 08:18:23;;;;;;;;;;;;;;;35.13;21.68;101488.31;4410948;32;19997;-70
2022/07/15 08:20:49;;;;;;;;;;;;;;;35.22;21.74;101484.72;4411668;32;19989;-70
2022/07/15 08:23:20;;;;;;;;;;;;;;;34.63;22.63;101477.03;4413052;32;19993;-70
2022/07/15 08:25:45;;;;;;;;;;;;;;;34.40;23.05;101480.03;4409065;32;20012;-70
2022/07/15 08:28:11;;;;;;;;;;;;;;;34.38;23.12;101476.16;4407606;32;19993;-71
2022/07/15 08:30:36;;;;;;;;;;;;;;;35.09;22.44;101479.16;4411285;32;19973;-70
2022/07/15 08:33:02;;;;;;;;;;;;;;;35.40;22.04;101485.63;4411050;32;20401;-69
2022/07/15 08:35:28;;;;;;;;;;;;;;;35.54;22.00;101483.94;4412335;32;19980;-70
2022/07/15 08:37:54;;;;;;;;;;;;;;;35.64;21.95;101482.69;4409803;32;20005;-69
2022/07/15 08:40:19;;;;;;;;;;;;;;;35.15;22.68;101482.62;4404411;32;20008;-70
2022/07/15 08:42:47;;;;;;;;;;;;;;;34.75;23.08;101478.16;4410762;32;20013;-70
2022/07/15 08:45:14;;;;;;;;;;;;;;;34.62;23.35;101473.31;4409838;32;19961;-70
2022/07/15 08:47:41;;;;;;;;;;;;;;;34.92;22.97;101472.44;4409494;32;20347;-70
2022/07/15 08:50:08;;;;;;;;;;;;;;;34.37;23.65;101472.44;4411241;32;20020;-70
2022/07/15 08:52:36;;;;;;;;;;;;;;;35.03;22.97;101466.12;4409722;32;20437;-69
2022/07/15 08:55:03;;;;;;;;;;;;;;;35.13;22.94;101469.97;4409739;32;19958;-70
2022/07/15 08:57:29;;;;;;;;;;;;;;;35.41;22.56;101463.75;4407796;32;19980;-70
2022/07/15 08:59:55;;;;;;;;;;;;;;;34.75;23.09;101470.13;4405266;32;20011;-70
2022/07/15 09:02:20;;;;;;;;;;;;;;;34.47;23.27;101467.53;4404810;32;20008;-70
2022/07/15 09:05:06;;;;;;;;;;;;;;;34.53;23.27;101467.31;4410057;32;20318;-70
2022/07/15 09:07:48;;;;;;;;;;;;;;;34.63;23.08;101469.03;4409569;32;19961;-70
2022/07/15 09:10:14;;;;;;;;;;;;;;;33.88;23.78;101455.38;4395512;32;20030;-70
2022/07/15 09:12:42;;;;;;;;;;;;;;;34.33;23.39;101463.28;4411738;32;20006;-69
2022/07/15 09:15:08;;;;;;;;;;;;;;;33.66;23.93;101456.16;4411258;32;20401;-69
2022/07/15 09:17:35;;;;;;;;;;;;;;;33.76;23.96;101457.13;4411063;32;20016;-69
2022/07/15 09:22:55;;;;;;;;;;;;;;;34.30;23.35;101458.62;3944932;32;15746954;-70
2022/07/15 09:25:22;;;;;;;;;;;;;;;34.30;23.35;101458.62;4421632;32;20047;-70
2022/07/15 09:27:48;;;;;;;;;;;;;;;34.68;22.69;101461.41;4423405;32;20625;-70
2022/07/15 09:36:05;;;;;;;;;;;;;;;34.60;22.81;101449.75;4421272;32;20000;-70
2022/07/15 09:38:23;;;;;;;;;;;;;;;33.87;23.46;101450.87;4422396;32;20453;-70
2022/07/15 09:40:48;;;;;;;;;;;;;;;33.70;23.72;101450.69;4424572;32;20254;-70
2022/07/15 09:43:14;;;;;;;;;;;;;;;33.44;23.97;101444.47;4420928;32;20091;-70
2022/07/15 09:45:40;;;;;;;;;;;;;;;33.96;23.42;101443.69;4422720;32;20004;-71
2022/07/15 09:48:07;;;;;;;;;;;;;;;34.27;23.14;101440.09;4420308;32;20405;-71
2022/07/15 09:50:34;;;;;;;;;;;;;;;34.12;23.37;101430.59;4421675;32;20131;-69
2022/07/15 09:53:03;;;;;;;;;;;;;;;34.08;23.25;101433.16;4422780;32;19963;-70
2022/07/15 09:55:29;;;;;;;;;;;;;;;33.89;23.69;101433.56;4422949;32;20029;-70
2022/07/15 09:57:54;;;;;;;;;;;;;;;33.59;23.95;101426.97;4408766;32;19953;-70
2022/07/15 10:00:20;;;;;;;;;;;;;;;34.12;23.49;101419.69;4424289;32;19991;-70
2022/07/15 10:02:46;;;;;;;;;;;;;;;34.69;23.14;101419.87;4420955;32;20012;-69
2022/07/15 10:05:11;;;;;;;;;;;;;;;34.39;23.44;101425.88;4423872;32;20385;-69
2022/07/15 10:07:37;;;;;;;;;;;;;;;34.59;23.34;101427.72;4424027;32;20158;-70
2022/07/15 10:10:04;;;;;;;;;;;;;;;34.81;22.95;101423.91;4421762;32;20008;-70
2022/07/15 10:12:34;;;;;;;;;;;;;;;34.64;23.07;101417.19;4421352;32;20011;-70
2022/07/15 10:25:40;;;;;;;;;;;;;;;36.19;20.94;101412.03;3945637;32;15726552;-70
2022/07/15 10:28:09;;;;;;;;;;;;;;;36.45;20.72;101416.47;4428163;32;19969;-70
2022/07/15 10:30:37;;;;;;;;;;;;;;;36.88;20.41;101409.84;4426716;32;20060;-69
2022/07/15 10:35:42;;;;;;;;;;;;;;;37.65;19.42;101406.66;3960952;31;15717951;-69
2022/07/15 10:41:01;;;;;;;;;;;;;;;36.23;20.88;101401.44;3946817;32;15722530;-68
2022/07/15 10:43:46;;;;;;;;;;;;;;;36.39;20.62;101407.94;4422096;32;20124;-68
2022/07/15 10:46:19;;;;;;;;;;;;;;;36.40;20.63;101402.81;4423193;32;19958;-68
2022/07/15 10:48:51;;;;;;;;;;;;;;;36.46;20.60;101418.78;4424301;32;19957;-67
2022/07/15 10:51:36;;;;;;;;;;;;;;;36.50;20.59;101415.44;4409909;32;20000;-69
2022/07/15 10:56:41;;;;;;;;;;;;;;;36.93;20.31;101417.59;3961988;31;15724014;-69
2022/07/15 10:59:08;;;;;;;;;;;;;;;36.93;20.31;101417.59;4447969;32;20000;-69
2022/07/15 11:01:34;;;;;;;;;;;;;;;36.12;21.30;101421.72;4447170;32;20445;-69
2022/07/15 11:04:20;;;;;;;;;;;;;;;36.67;20.85;101424.97;4444605;32;19992;-69
2022/07/15 11:07:09;;;;;;;;;;;;;;;36.61;21.01;101432.47;4446753;32;19988;-69
2022/07/15 11:09:55;;;;;;;;;;;;;;;34.71;23.28;101419.28;4447290;32;19993;-69
2022/07/15 11:12:23;;;;;;;;;;;;;;;34.92;23.27;101422.69;4444095;32;20027;-69
2022/07/15 11:22:39;;;;;;;;;;;;;;;37.72;20.05;101422.59;3947805;32;15722623;-70
2022/07/15 11:25:05;;;;;;;;;;;;;;;37.72;20.05;101422.59;4423882;32;20544;-69
2022/07/15 11:27:31;;;;;;;;;;;;;;;37.62;20.13;101419.63;4420221;32;19957;-69
2022/07/15 11:30:02;;;;;;;;;;;;;;;36.48;21.30;101421.91;4423034;32;20015;-68
2022/07/15 11:32:28;;;;;;;;;;;;;;;36.52;21.37;101424.38;4425370;32;20064;-68
2022/07/15 11:34:55;;;;;;;;;;;;;;;36.89;20.82;101402.56;4423195;32;20019;-68
2022/07/15 11:37:23;;;;;;;;;;;;;;;36.05;21.73;101407.94;4424925;32;20034;-70
2022/07/15 11:39:50;;;;;;;;;;;;;;;37.37;20.29;101404.38;4423478;32;19998;-68
2022/07/15 11:45:03;;;;;;;;;;;;;;;36.81;20.90;101401.94;4423752;32;20013;-68
2022/07/15 11:47:29;;;;;;;;;;;;;;;36.36;21.08;101393.69;4416339;32;20084;-68
2022/07/15 11:49:59;;;;;;;;;;;;;;;37.14;20.58;101386.31;4421862;32;20042;-69
2022/07/15 11:52:25;;;;;;;;;;;;;;;38.56;19.15;101390.94;4418928;32;20029;-69
2022/07/15 11:54:51;;;;;;;;;;;;;;;39.00;18.63;101399.41;4417851;32;19962;-69
2022/07/15 11:57:17;;;;;;;;;;;;;;;39.16;18.17;101385.84;4420615;32;20390;-69
2022/07/15 11:59:57;;;;;;;;;;;;;;;39.52;17.56;101391.44;4421853;32;20023;-69
2022/07/15 12:02:25;;;;;;;;;;;;;;;38.91;17.97;101383.28;4422669;32;19996;-69
2022/07/15 12:04:51;;;;;;;;;;;;;;;38.10;18.81;101366.06;4420286;32;20029;-69
2022/07/15 12:07:17;;;;;;;;;;;;;;;38.34;18.48;101368.66;4422864;32;20429;-69
2022/07/15 12:09:44;;;;;;;;;;;;;;;39.21;17.76;101370.81;4422271;32;19973;-69
2022/07/15 12:12:09;;;;;;;;;;;;;;;39.30;17.79;101369.97;4420637;32;19972;-69
2022/07/15 12:14:35;;;;;;;;;;;;;;;38.15;18.80;101379.66;4422613;32;20008;-69
2022/07/15 12:17:01;;;;;;;;;;;;;;;36.78;20.29;101386.28;4418930;32;20313;-69
2022/07/15 12:19:29;;;;;;;;;;;;;;;36.07;20.68;101381.69;4422740;32;19962;-69
2022/07/15 12:21:56;;;;;;;;;;;;;;;36.77;20.41;101370.09;4422876;32;20048;-69
2022/07/15 12:24:22;;;;;;;;;;;;;;;36.30;21.11;101366.81;4422128;32;20029;-69
2022/07/15 12:29:25;;;;;;;;;;;;;;;37.42;19.87;101376.88;3945813;32;15722575;-69
2022/07/15 12:31:52;;;;;;;;;;;;;;;37.42;19.87;101376.88;4426468;32;19957;-70
2022/07/15 12:34:18;;;;;;;;;;;;;;;37.01;19.37;101377.16;4423810;32;20034;-69
2022/07/15 12:36:43;;;;;;;;;;;;;;;36.87;19.27;101356.22;4424164;32;20555;-68
2022/07/15 12:39:11;;;;;;;;;;;;;;;35.72;20.66;101363.34;4423301;32;19949;-67
2022/07/15 12:41:38;;;;;;;;;;;;;;;36.47;20.38;101367.53;4425635;32;19993;-68
2022/07/15 12:44:05;;;;;;;;;;;;;;;35.27;21.81;101368.78;4421747;32;20019;-68
2022/07/15 12:46:51;;;;;;;;;;;;;;;36.57;20.29;101368.41;4420105;32;20394;-68
2022/07/15 12:49:37;;;;;;;;;;;;;;;37.22;19.76;101365.69;4420128;32;20559;-68
2022/07/15 12:52:19;;;;;;;;;;;;;;;37.03;19.84;101365.59;4423585;32;19993;-68
2022/07/15 12:54:45;;;;;;;;;;;;;;;37.26;19.26;101368.94;4422408;32;20544;-68
2022/07/15 13:02:57;;;;;;;;;;;;;;;37.21;18.24;101370.03;3945146;32;15735385;-69
2022/07/15 13:05:24;;;;;;;;;;;;;;;36.36;19.43;101370.25;4418324;32;20000;-69
2022/07/15 13:07:50;;;;;;;;;;;;;;;36.23;19.91;101372.13;4414405;32;20483;-69
2022/07/15 13:10:15;;;;;;;;;;;;;;;36.42;19.68;101373.69;4414127;32;19992;-68
2022/07/15 13:12:41;;;;;;;;;;;;;;;35.86;20.01;101385.06;4417078;32;20016;-69
2022/07/15 13:15:07;;;;;;;;;;;;;;;35.53;20.32;101383.63;4417437;32;19981;-69
2022/07/15 13:17:33;;;;;;;;;;;;;;;35.25;20.67;101389.87;4418559;32;20029;-69
2022/07/15 13:19:58;;;;;;;;;;;;;;;36.38;19.63;101385.09;4419832;32;19997;-71
2022/07/15 13:22:24;;;;;;;;;;;;;;;36.79;19.36;101390.00;4420111;32;20000;-71
2022/07/15 13:24:50;;;;;;;;;;;;;;;35.97;20.37;101390.44;4415190;32;19981;-71